Corona Australe — IKVF2 — position and weather

sailwx.info

Track history (hours):
 
Tides and Currents Weather Stations Pressure Air Temp Water Temp Dewpoint Dewpoint Depression Visibility Wind Speed Wind Dir Waves Ship Positions

Corona Australe

Last reported at 2018-May-16 23:12 UTC. Time now 2018-May-23 15:13 UTC.
Position N 44°39' E 013°01'.

Length 165 m; draft 7.3 m.

Type: Cargo ship. MMSI: 247257200.

Date/timePositionNaut miles runAvg speedWind from/ knotsBaromVisibWave heightAir tempDewpointWater temp
2018-May-16 23:12N 44°39' E 013°01'211.0
2018-May-16 23:00N 44°42' E 013°00'510.8
2018-May-16 22:30N 44°47' E 012°57'611.1
2018-May-16 21:58N 44°52' E 012°53'510.8
2018-May-16 21:29N 44°56' E 012°50'510.7
2018-May-16 20:59N 45°01' E 012°46'510.7
2018-May-16 20:29N 45°06' E 012°42'710.9
2018-May-16 19:48N 45°10' E 012°34'310.6
2018-May-16 19:30N 45°12' E 012°31'610.6
2018-May-16 18:58N 45°17' E 012°26'510.6
2018-May-16 18:30N 45°20' E 012°21'4 8.4
2018-May-16 18:00N 45°22' E 012°15'4 7.9
2018-May-16 17:30N 45°26' E 012°16'2 0.1
2018-May-15 18:20N 45°28' E 012°16'1 4.2
2018-May-15 18:00N 45°26' E 012°16'4 8.6
2018-May-15 17:29N 45°22' E 012°15'5 9.9
2018-May-15 17:00N 45°20' E 012°22'0 0.9
2018-May-15 16:30N 45°20' E 012°22'1 1.7
2018-May-15 16:00N 45°20' E 012°24'2 4.1
2018-May-15 15:30N 45°22' E 012°25'0 0.1
2018-May-15 15:00N 45°22' E 012°25'1 2.3
2018-May-15 14:30N 45°21' E 012°26'5 9.8
2018-May-15 14:00N 45°17' E 012°31'611.8
2018-May-15 13:29N 45°14' E 012°38'710.6
2018-May-15 12:48N 45°07' E 012°42'  
2018-May-12 21:27N 44°28' E 012°15'  
Track history (hours):
 
Tides and Currents Weather Stations Pressure Air Temp Water Temp Dewpoint Dewpoint Depression Visibility Wind Speed Wind Dir Waves Ship Positions

Corona Australe

Last reported at 2018-May-16 23:12 UTC. Time now 2018-May-23 15:13 UTC.
Position N 44°39' E 013°01'.

Length 165 m; draft 7.3 m.

Type: Cargo ship. MMSI: 247257200.

Date/timePositionNaut miles runAvg speedWind from/ knotsBaromVisibWave heightAir tempDewpointWater temp
2018-May-16 23:12N 44°39' E 013°01'211.0
2018-May-16 23:00N 44°42' E 013°00'510.8
2018-May-16 22:30N 44°47' E 012°57'611.1
2018-May-16 21:58N 44°52' E 012°53'510.8
2018-May-16 21:29N 44°56' E 012°50'510.7
2018-May-16 20:59N 45°01' E 012°46'510.7
2018-May-16 20:29N 45°06' E 012°42'710.9
2018-May-16 19:48N 45°10' E 012°34'310.6
2018-May-16 19:30N 45°12' E 012°31'610.6
2018-May-16 18:58N 45°17' E 012°26'510.6
2018-May-16 18:30N 45°20' E 012°21'4 8.4
2018-May-16 18:00N 45°22' E 012°15'4 7.9
2018-May-16 17:30N 45°26' E 012°16'2 0.1
2018-May-15 18:20N 45°28' E 012°16'1 4.2
2018-May-15 18:00N 45°26' E 012°16'4 8.6
2018-May-15 17:29N 45°22' E 012°15'5 9.9
2018-May-15 17:00N 45°20' E 012°22'0 0.9
2018-May-15 16:30N 45°20' E 012°22'1 1.7
2018-May-15 16:00N 45°20' E 012°24'2 4.1
2018-May-15 15:30N 45°22' E 012°25'0 0.1
2018-May-15 15:00N 45°22' E 012°25'1 2.3
2018-May-15 14:30N 45°21' E 012°26'5 9.8
2018-May-15 14:00N 45°17' E 012°31'611.8
2018-May-15 13:29N 45°14' E 012°38'710.6
2018-May-15 12:48N 45°07' E 012°42'  
2018-May-12 21:27N 44°28' E 012°15'  

Dump ship's entire track history